Airport View

Enter AWOS ICAO identifier for current METAR.

ex. KFNL

KHRO 251009Z AUTO 09005KT 7SM FEW004 FEW012 OVC023 07/05 A3003 RMK AO2 T00670050

25 Oct 2020 10:59

Frequency: 121.125

Phone: 870-365-8550

Other Area AWOS: KBBG - KFLP - KFWB - KBPK

TAF AMD KHRO 251025Z 2510/2606 09005KT P6SM FEW004 OVC025 FM251400 07002KT P6SM OVC015